sensor_id;sensor_type;location;lat;lon;timestamp;pressure;altitude;pressure_sealevel;temperature;humidity
2339;BME280;1180;51.438;6.978;2023-01-31T00:01:18;101110.16;;;7.59;84.11
2339;BME280;1180;51.438;6.978;2023-01-31T00:03:44;101103.50;;;7.55;84.17
2339;BME280;1180;51.438;6.978;2023-01-31T00:06:17;101100.72;;;7.61;83.77
2339;BME280;1180;51.438;6.978;2023-01-31T00:08:44;101110.06;;;7.62;83.74
2339;BME280;1180;51.438;6.978;2023-01-31T00:11:10;101116.03;;;7.62;83.54
2339;BME280;1180;51.438;6.978;2023-01-31T00:13:36;101111.78;;;7.61;83.72
2339;BME280;1180;51.438;6.978;2023-01-31T00:16:02;101106.75;;;7.58;83.77
2339;BME280;1180;51.438;6.978;2023-01-31T00:18:28;101105.00;;;7.60;83.84
2339;BME280;1180;51.438;6.978;2023-01-31T00:20:54;101113.53;;;7.59;83.95
2339;BME280;1180;51.438;6.978;2023-01-31T00:23:19;101113.53;;;7.59;83.78
2339;BME280;1180;51.438;6.978;2023-01-31T00:25:44;101115.13;;;7.63;83.61
2339;BME280;1180;51.438;6.978;2023-01-31T00:28:10;101114.03;;;7.71;83.45
2339;BME280;1180;51.438;6.978;2023-01-31T00:30:35;101108.88;;;7.72;83.35
2339;BME280;1180;51.438;6.978;2023-01-31T00:33:01;101100.31;;;7.73;83.25
2339;BME280;1180;51.438;6.978;2023-01-31T00:35:26;101115.91;;;7.65;83.71
2339;BME280;1180;51.438;6.978;2023-01-31T00:37:52;101116.09;;;7.59;83.68
2339;BME280;1180;51.438;6.978;2023-01-31T00:40:18;101108.41;;;7.61;83.64
2339;BME280;1180;51.438;6.978;2023-01-31T00:42:43;101116.16;;;7.58;83.96
2339;BME280;1180;51.438;6.978;2023-01-31T00:45:09;101112.66;;;7.60;83.75
2339;BME280;1180;51.438;6.978;2023-01-31T00:47:35;101098.13;;;7.62;83.66
2339;BME280;1180;51.438;6.978;2023-01-31T00:50:00;101102.97;;;7.70;83.39
2339;BME280;1180;51.438;6.978;2023-01-31T00:52:25;101100.38;;;7.72;82.99
2339;BME280;1180;51.438;6.978;2023-01-31T00:54:51;101088.31;;;7.75;82.72
2339;BME280;1180;51.438;6.978;2023-01-31T00:57:16;101095.38;;;7.69;83.23
2339;BME280;1180;51.438;6.978;2023-01-31T00:59:41;101100.31;;;7.73;83.03
2339;BME280;1180;51.438;6.978;2023-01-31T01:02:07;101104.44;;;7.77;82.64
2339;BME280;1180;51.438;6.978;2023-01-31T01:04:32;101102.88;;;7.73;82.61
2339;BME280;1180;51.438;6.978;2023-01-31T01:06:57;101106.41;;;7.69;82.62
2339;BME280;1180;51.438;6.978;2023-01-31T01:09:23;101109.97;;;7.65;82.67
2339;BME280;1180;51.438;6.978;2023-01-31T01:11:49;101110.16;;;7.59;83.19
2339;BME280;1180;51.438;6.978;2023-01-31T01:14:15;101119.53;;;7.58;83.21
2339;BME280;1180;51.438;6.978;2023-01-31T01:16:41;101118.81;;;7.55;83.30
2339;BME280;1180;51.438;6.978;2023-01-31T01:19:09;101117.16;;;7.54;83.51
2339;BME280;1180;51.438;6.978;2023-01-31T01:21:35;101116.09;;;7.59;83.15
2339;BME280;1180;51.438;6.978;2023-01-31T01:24:06;101111.19;;;7.53;83.00
2339;BME280;1180;51.438;6.978;2023-01-31T01:26:33;101105.53;;;7.43;83.38
2339;BME280;1180;51.438;6.978;2023-01-31T01:29:00;101110.81;;;7.39;83.64
2339;BME280;1180;51.438;6.978;2023-01-31T01:31:27;101100.59;;;7.39;83.67
2339;BME280;1180;51.438;6.978;2023-01-31T01:37:16;101090.75;;;7.26;83.64
2339;BME280;1180;51.438;6.978;2023-01-31T01:39:48;101090.81;;;7.25;83.78
2339;BME280;1180;51.438;6.978;2023-01-31T01:42:20;101103.69;;;7.21;84.13
2339;BME280;1180;51.438;6.978;2023-01-31T01:47:34;101090.75;;;7.26;83.60
2339;BME280;1180;51.438;6.978;2023-01-31T01:50:06;101084.09;;;7.22;83.34
2339;BME280;1180;51.438;6.978;2023-01-31T01:52:41;101091.75;;;7.22;83.26
2339;BME280;1180;51.438;6.978;2023-01-31T01:55:18;101097.34;;;7.06;84.11
2339;BME280;1180;51.438;6.978;2023-01-31T01:57:48;101088.72;;;7.11;84.18
2339;BME280;1180;51.438;6.978;2023-01-31T02:00:19;101092.25;;;7.06;83.92
2339;BME280;1180;51.438;6.978;2023-01-31T02:02:46;101098.31;;;7.02;84.26
2339;BME280;1180;51.438;6.978;2023-01-31T02:05:16;101098.53;;;6.96;84.16
2339;BME280;1180;51.438;6.978;2023-01-31T02:07:44;101096.69;;;7.00;84.47
2339;BME280;1180;51.438;6.978;2023-01-31T02:10:15;101099.00;;;7.07;84.31
2339;BME280;1180;51.438;6.978;2023-01-31T02:12:41;101097.25;;;7.10;83.91
2339;BME280;1180;51.438;6.978;2023-01-31T02:15:07;101100.59;;;7.12;83.51
2339;BME280;1180;51.438;6.978;2023-01-31T02:17:33;101098.16;;;7.07;83.92
2339;BME280;1180;51.438;6.978;2023-01-31T02:20:21;101110.88;;;7.08;83.79
2339;BME280;1180;51.438;6.978;2023-01-31T02:26:01;101116.88;;;7.07;83.89
2339;BME280;1180;51.438;6.978;2023-01-31T02:28:50;101121.19;;;7.05;83.76
2339;BME280;1180;51.438;6.978;2023-01-31T02:39:37;101114.41;;;7.04;83.84
2339;BME280;1180;51.438;6.978;2023-01-31T02:42:07;101108.44;;;7.05;84.10
2339;BME280;1180;51.438;6.978;2023-01-31T02:44:46;101108.72;;;6.96;84.53
2339;BME280;1180;51.438;6.978;2023-01-31T02:48:02;101109.34;;;7.03;84.38
2339;BME280;1180;51.438;6.978;2023-01-31T02:53:32;101109.41;;;7.01;84.08
2339;BME280;1180;51.438;6.978;2023-01-31T02:56:06;101107.66;;;7.03;84.26
2339;BME280;1180;51.438;6.978;2023-01-31T02:58:45;101100.22;;;6.96;84.22
2339;BME280;1180;51.438;6.978;2023-01-31T03:01:17;101114.75;;;6.93;84.60
2339;BME280;1180;51.438;6.978;2023-01-31T03:07:13;101102.56;;;7.02;84.38
2339;BME280;1180;51.438;6.978;2023-01-31T03:10:14;101103.38;;;7.04;84.18
2339;BME280;1180;51.438;6.978;2023-01-31T03:15:37;101094.09;;;7.01;83.72
2339;BME280;1180;51.438;6.978;2023-01-31T03:18:30;101089.63;;;7.08;83.99
2339;BME280;1180;51.438;6.978;2023-01-31T03:21:09;101088.81;;;7.07;83.60
2339;BME280;1180;51.438;6.978;2023-01-31T03:23:40;101081.03;;;7.11;83.58
2339;BME280;1180;51.438;6.978;2023-01-31T03:26:08;101081.03;;;7.11;83.30
2339;BME280;1180;51.438;6.978;2023-01-31T03:28:35;101077.03;;;7.03;83.34
2339;BME280;1180;51.438;6.978;2023-01-31T03:31:16;101070.28;;;7.01;83.85
2339;BME280;1180;51.438;6.978;2023-01-31T03:33:51;101057.44;;;7.04;83.75
2339;BME280;1180;51.438;6.978;2023-01-31T03:36:30;101072.63;;;7.07;83.26
2339;BME280;1180;51.438;6.978;2023-01-31T03:41:29;101059.34;;;6.97;83.89
2339;BME280;1180;51.438;6.978;2023-01-31T03:46:56;101045.34;;;7.09;83.32
2339;BME280;1180;51.438;6.978;2023-01-31T03:49:25;101047.09;;;7.08;83.24
2339;BME280;1180;51.438;6.978;2023-01-31T03:51:57;101031.91;;;7.04;83.21
2339;BME280;1180;51.438;6.978;2023-01-31T03:54:27;101042.91;;;7.06;83.32
2339;BME280;1180;51.438;6.978;2023-01-31T03:57:04;101035.22;;;7.07;83.52
2339;BME280;1180;51.438;6.978;2023-01-31T03:59:35;101032.84;;;7.01;83.84
2339;BME280;1180;51.438;6.978;2023-01-31T04:02:04;101020.88;;;7.03;83.72
2339;BME280;1180;51.438;6.978;2023-01-31T04:06:59;101012.88;;;7.14;83.00
2339;BME280;1180;51.438;6.978;2023-01-31T04:09:25;101015.66;;;7.06;83.10
2339;BME280;1180;51.438;6.978;2023-01-31T04:11:50;101019.81;;;7.09;83.12
2339;BME280;1180;51.438;6.978;2023-01-31T04:14:16;101016.56;;;7.05;83.27
2339;BME280;1180;51.438;6.978;2023-01-31T04:16:41;101017.63;;;6.98;83.98
2339;BME280;1180;51.438;6.978;2023-01-31T04:19:07;101018.69;;;6.91;84.03
2339;BME280;1180;51.438;6.978;2023-01-31T04:21:32;101021.78;;;7.01;83.86
2339;BME280;1180;51.438;6.978;2023-01-31T04:23:58;101014.38;;;6.93;84.45
2339;BME280;1180;51.438;6.978;2023-01-31T04:26:23;101013.75;;;6.86;84.86
2339;BME280;1180;51.438;6.978;2023-01-31T04:28:49;101019.69;;;6.87;85.15
2339;BME280;1180;51.438;6.978;2023-01-31T04:31:15;101015.34;;;6.89;85.58
2339;BME280;1180;51.438;6.978;2023-01-31T04:33:40;101019.47;;;6.93;85.55
2339;BME280;1180;51.438;6.978;2023-01-31T04:36:06;101022.78;;;6.97;85.38
2339;BME280;1180;51.438;6.978;2023-01-31T04:38:32;101029.84;;;6.88;86.13
2339;BME280;1180;51.438;6.978;2023-01-31T04:40:57;101022.53;;;6.77;86.35
2339;BME280;1180;51.438;6.978;2023-01-31T04:43:22;101020.66;;;6.83;86.46
2339;BME280;1180;51.438;6.978;2023-01-31T04:45:48;101032.72;;;6.77;86.75
2339;BME280;1180;51.438;6.978;2023-01-31T04:48:13;101029.47;;;6.72;87.38
2339;BME280;1180;51.438;6.978;2023-01-31T04:50:38;101025.06;;;6.77;87.10
2339;BME280;1180;51.438;6.978;2023-01-31T04:53:04;101015.63;;;6.81;86.84
2339;BME280;1180;51.438;6.978;2023-01-31T04:55:29;101018.97;;;6.83;87.11
2339;BME280;1180;51.438;6.978;2023-01-31T04:57:54;101013.84;;;6.83;87.42
2339;BME280;1180;51.438;6.978;2023-01-31T05:00:20;101006.81;;;6.90;86.88
2339;BME280;1180;51.438;6.978;2023-01-31T05:02:45;101012.88;;;6.87;87.28
2339;BME280;1180;51.438;6.978;2023-01-31T05:05:11;100998.91;;;6.99;86.70
2339;BME280;1180;51.438;6.978;2023-01-31T05:07:39;100998.00;;;7.00;86.83
2339;BME280;1180;51.438;6.978;2023-01-31T05:10:05;100992.94;;;6.99;86.90
2339;BME280;1180;51.438;6.978;2023-01-31T05:12:31;100989.72;;;6.93;86.88
2339;BME280;1180;51.438;6.978;2023-01-31T05:14:56;100978.72;;;6.91;87.17
2339;BME280;1180;51.438;6.978;2023-01-31T05:17:22;100982.81;;;6.97;86.81
2339;BME280;1180;51.438;6.978;2023-01-31T05:19:50;100984.75;;;6.89;87.68
2339;BME280;1180;51.438;6.978;2023-01-31T05:22:15;100981.38;;;6.88;87.50
2339;BME280;1180;51.438;6.978;2023-01-31T05:24:40;100983.97;;;6.87;88.10
2339;BME280;1180;51.438;6.978;2023-01-31T05:27:05;100982.28;;;6.86;88.00
2339;BME280;1180;51.438;6.978;2023-01-31T05:29:31;100977.09;;;6.89;87.96
2339;BME280;1180;51.438;6.978;2023-01-31T05:32:00;100979.91;;;6.81;88.57
2339;BME280;1180;51.438;6.978;2023-01-31T05:34:26;100976.59;;;6.77;88.86
2339;BME280;1180;51.438;6.978;2023-01-31T05:36:55;100977.38;;;6.79;89.03
2339;BME280;1180;51.438;6.978;2023-01-31T05:39:20;100982.28;;;6.86;88.76
2339;BME280;1180;51.438;6.978;2023-01-31T05:41:46;100974.72;;;6.83;89.13
2339;BME280;1180;51.438;6.978;2023-01-31T05:44:12;100967.72;;;6.89;88.55
2339;BME280;1180;51.438;6.978;2023-01-31T05:46:38;100972.25;;;6.81;88.39
2339;BME280;1180;51.438;6.978;2023-01-31T05:49:04;100966.00;;;6.90;88.66
2339;BME280;1180;51.438;6.978;2023-01-31T05:51:29;100960.28;;;6.83;88.20
2339;BME280;1180;51.438;6.978;2023-01-31T05:53:55;100965.56;;;6.77;88.45
2339;BME280;1180;51.438;6.978;2023-01-31T05:56:21;100961.22;;;6.79;88.93
2339;BME280;1180;51.438;6.978;2023-01-31T05:58:46;100954.97;;;6.89;88.11
2339;BME280;1180;51.438;6.978;2023-01-31T06:01:22;100966.16;;;6.85;88.20
2339;BME280;1180;51.438;6.978;2023-01-31T06:03:47;100930.53;;;6.82;88.16
2339;BME280;1180;51.438;6.978;2023-01-31T06:06:33;100933.88;;;6.84;88.35
2339;BME280;1180;51.438;6.978;2023-01-31T06:08:58;100926.56;;;6.73;88.87
2339;BME280;1180;51.438;6.978;2023-01-31T06:11:24;100914.63;;;6.74;88.96
2339;BME280;1180;51.438;6.978;2023-01-31T06:13:49;100905.28;;;6.74;88.75
2339;BME280;1180;51.438;6.978;2023-01-31T06:16:15;100927.94;;;6.84;88.07
2339;BME280;1180;51.438;6.978;2023-01-31T06:22:02;100934.53;;;6.64;89.21
2339;BME280;1180;51.438;6.978;2023-01-31T06:24:27;100936.91;;;6.69;89.08
2339;BME280;1180;51.438;6.978;2023-01-31T06:26:52;100936.44;;;6.84;88.91
2339;BME280;1180;51.438;6.978;2023-01-31T06:29:18;100927.53;;;6.96;88.27
2339;BME280;1180;51.438;6.978;2023-01-31T06:31:44;100934.47;;;6.92;87.74
2339;BME280;1180;51.438;6.978;2023-01-31T06:34:10;100931.25;;;6.86;88.68
2339;BME280;1180;51.438;6.978;2023-01-31T06:36:38;100933.13;;;6.81;88.82
2339;BME280;1180;51.438;6.978;2023-01-31T06:39:03;100946.66;;;6.83;88.67
2339;BME280;1180;51.438;6.978;2023-01-31T06:41:29;100937.75;;;6.96;88.72
2339;BME280;1180;51.438;6.978;2023-01-31T06:43:55;100947.75;;;6.75;88.91
2339;BME280;1180;51.438;6.978;2023-01-31T06:46:20;100946.44;;;6.90;88.47
2339;BME280;1180;51.438;6.978;2023-01-31T06:48:46;100941.97;;;6.97;88.25
2339;BME280;1180;51.438;6.978;2023-01-31T06:51:13;100935.50;;;7.12;87.46
2339;BME280;1180;51.438;6.978;2023-01-31T06:53:38;100943.78;;;7.19;87.00
2339;BME280;1180;51.438;6.978;2023-01-31T06:56:04;100946.66;;;7.10;87.22
2339;BME280;1180;51.438;6.978;2023-01-31T06:58:29;100950.81;;;7.12;87.03
2339;BME280;1180;51.438;6.978;2023-01-31T07:00:55;100941.44;;;7.13;86.67
2339;BME280;1180;51.438;6.978;2023-01-31T07:03:20;100941.69;;;7.05;86.85
2339;BME280;1180;51.438;6.978;2023-01-31T07:05:45;100937.78;;;7.20;86.79
2339;BME280;1180;51.438;6.978;2023-01-31T07:08:11;100940.56;;;7.14;86.33
2339;BME280;1180;51.438;6.978;2023-01-31T07:10:37;100932.22;;;7.08;86.42
2339;BME280;1180;51.438;6.978;2023-01-31T07:13:03;100945.97;;;7.04;86.83
2339;BME280;1180;51.438;6.978;2023-01-31T07:15:28;100956.28;;;7.01;86.68
2339;BME280;1180;51.438;6.978;2023-01-31T07:17:58;100955.31;;;7.05;86.96
2339;BME280;1180;51.438;6.978;2023-01-31T07:20:23;100949.25;;;7.08;86.99
2339;BME280;1180;51.438;6.978;2023-01-31T07:22:58;100949.94;;;7.13;86.20
2339;BME280;1180;51.438;6.978;2023-01-31T07:25:24;100953.63;;;7.30;85.81
2339;BME280;1180;51.438;6.978;2023-01-31T07:27:50;100948.84;;;7.20;85.91
2339;BME280;1180;51.438;6.978;2023-01-31T07:30:15;100946.66;;;7.10;86.08
2339;BME280;1180;51.438;6.978;2023-01-31T07:32:41;100941.88;;;7.26;86.21
2339;BME280;1180;51.438;6.978;2023-01-31T07:35:06;100947.59;;;7.32;85.11
2339;BME280;1180;51.438;6.978;2023-01-31T07:37:32;100950.81;;;7.37;85.29
2339;BME280;1180;51.438;6.978;2023-01-31T07:39:57;100948.28;;;7.37;85.18
2339;BME280;1180;51.438;6.978;2023-01-31T07:42:23;100954.78;;;7.46;84.11
2339;BME280;1180;51.438;6.978;2023-01-31T07:44:48;100956.72;;;7.40;84.17
2339;BME280;1180;51.438;6.978;2023-01-31T07:47:13;100948.84;;;7.20;85.30
2339;BME280;1180;51.438;6.978;2023-01-31T07:49:39;100935.03;;;7.26;85.06
2339;BME280;1180;51.438;6.978;2023-01-31T07:52:04;100928.16;;;7.28;85.00
2339;BME280;1180;51.438;6.978;2023-01-31T07:54:29;100920.19;;;7.37;84.56
2339;BME280;1180;51.438;6.978;2023-01-31T07:56:54;100922.44;;;7.45;84.80
2339;BME280;1180;51.438;6.978;2023-01-31T07:59:20;100922.06;;;7.56;83.98
2339;BME280;1180;51.438;6.978;2023-01-31T08:01:45;100918.44;;;7.63;83.01
2339;BME280;1180;51.438;6.978;2023-01-31T08:04:29;100926.19;;;7.60;83.26
2339;BME280;1180;51.438;6.978;2023-01-31T08:06:54;100918.06;;;7.49;84.07
2339;BME280;1180;51.438;6.978;2023-01-31T08:09:21;100917.19;;;7.50;83.56
2339;BME280;1180;51.438;6.978;2023-01-31T08:11:46;100916.84;;;7.59;83.72
2339;BME280;1180;51.438;6.978;2023-01-31T08:14:11;100902.38;;;7.60;83.21
2339;BME280;1180;51.438;6.978;2023-01-31T08:16:37;100905.84;;;7.57;83.17
2339;BME280;1180;51.438;6.978;2023-01-31T08:19:03;100906.84;;;7.53;83.31
2339;BME280;1180;51.438;6.978;2023-01-31T08:21:28;100905.59;;;7.65;83.09
2339;BME280;1180;51.438;6.978;2023-01-31T08:23:54;100903.75;;;7.69;83.08
2339;BME280;1180;51.438;6.978;2023-01-31T08:26:20;100895.63;;;7.57;83.64
2339;BME280;1180;51.438;6.978;2023-01-31T08:28:49;100914.81;;;7.69;83.50
2339;BME280;1180;51.438;6.978;2023-01-31T08:31:18;100902.38;;;7.60;83.60
2339;BME280;1180;51.438;6.978;2023-01-31T08:33:44;100920.28;;;7.58;85.39
2339;BME280;1180;51.438;6.978;2023-01-31T08:36:15;100919.81;;;7.48;86.39
2339;BME280;1180;51.438;6.978;2023-01-31T08:38:40;100909.00;;;7.65;86.41
2339;BME280;1180;51.438;6.978;2023-01-31T08:41:06;100901.09;;;7.72;86.78
2339;BME280;1180;51.438;6.978;2023-01-31T08:43:31;100903.53;;;7.75;86.73
2339;BME280;1180;51.438;6.978;2023-01-31T08:45:57;100911.84;;;7.80;86.70
2339;BME280;1180;51.438;6.978;2023-01-31T08:48:22;100907.13;;;7.69;87.38
2339;BME280;1180;51.438;6.978;2023-01-31T08:50:47;100884.75;;;7.76;87.90
2339;BME280;1180;51.438;6.978;2023-01-31T08:53:13;100876.47;;;7.69;87.94
2339;BME280;1180;51.438;6.978;2023-01-31T08:55:38;100884.09;;;7.71;88.71
2339;BME280;1180;51.438;6.978;2023-01-31T08:58:04;100875.78;;;7.65;89.44
2339;BME280;1180;51.438;6.978;2023-01-31T09:00:30;100869.81;;;7.65;89.41
2339;BME280;1180;51.438;6.978;2023-01-31T09:02:59;100866.50;;;7.63;89.87
2339;BME280;1180;51.438;6.978;2023-01-31T09:05:25;100844.00;;;7.49;91.06
2339;BME280;1180;51.438;6.978;2023-01-31T09:07:52;100857.78;;;7.69;90.56
2339;BME280;1180;51.438;6.978;2023-01-31T09:10:18;100847.00;;;7.60;90.71
2339;BME280;1180;51.438;6.978;2023-01-31T09:12:43;100851.41;;;7.57;90.75
2339;BME280;1180;51.438;6.978;2023-01-31T09:15:10;100842.88;;;7.56;91.22
2339;BME280;1180;51.438;6.978;2023-01-31T09:17:35;100855.34;;;7.65;91.12
2339;BME280;1180;51.438;6.978;2023-01-31T09:20:01;100848.25;;;7.72;90.79
2339;BME280;1180;51.438;6.978;2023-01-31T09:22:31;100838.59;;;7.80;90.44
2339;BME280;1180;51.438;6.978;2023-01-31T09:28:12;100839.59;;;7.76;91.13
2339;BME280;1180;51.438;6.978;2023-01-31T09:30:38;100837.59;;;7.85;91.20
2339;BME280;1180;51.438;6.978;2023-01-31T09:33:03;100832.28;;;7.89;90.52
2339;BME280;1180;51.438;6.978;2023-01-31T09:35:28;100840.50;;;7.98;90.62
2339;BME280;1180;51.438;6.978;2023-01-31T09:37:57;100835.94;;;8.06;89.10
2339;BME280;1180;51.438;6.978;2023-01-31T09:40:22;100827.06;;;7.92;89.12
2339;BME280;1180;51.438;6.978;2023-01-31T09:42:51;100822.50;;;8.01;89.00
2339;BME280;1180;51.438;6.978;2023-01-31T09:45:28;100819.47;;;7.91;89.94
2339;BME280;1180;51.438;6.978;2023-01-31T09:47:57;100815.59;;;8.03;89.04
2339;BME280;1180;51.438;6.978;2023-01-31T09:50:32;100823.19;;;7.82;89.81
2339;BME280;1180;51.438;6.978;2023-01-31T09:53:00;100825.03;;;7.78;89.30
2339;BME280;1180;51.438;6.978;2023-01-31T09:58:13;100822.03;;;7.91;90.26
2339;BME280;1180;51.438;6.978;2023-01-31T10:05:51;100820.22;;;7.93;92.49
2339;BME280;1180;51.438;6.978;2023-01-31T10:08:55;100813.88;;;7.81;93.24
2339;BME280;1180;51.438;6.978;2023-01-31T10:14:10;100816.13;;;7.89;93.54
2339;BME280;1180;51.438;6.978;2023-01-31T10:16:45;100807.44;;;7.93;93.51
2339;BME280;1180;51.438;6.978;2023-01-31T10:19:22;100786.06;;;7.95;92.96
2339;BME280;1180;51.438;6.978;2023-01-31T10:21:53;100779.88;;;8.01;93.15
2339;BME280;1180;51.438;6.978;2023-01-31T10:24:28;100769.38;;;7.87;93.28
2339;BME280;1180;51.438;6.978;2023-01-31T10:27:01;100769.53;;;7.82;94.38
2339;BME280;1180;51.438;6.978;2023-01-31T10:29:58;100761.63;;;7.88;94.38
2339;BME280;1180;51.438;6.978;2023-01-31T10:32:30;100759.78;;;7.92;94.57
2339;BME280;1180;51.438;6.978;2023-01-31T10:37:59;100758.25;;;8.08;93.88
2339;BME280;1180;51.438;6.978;2023-01-31T10:40:35;100763.91;;;8.17;93.53
2339;BME280;1180;51.438;6.978;2023-01-31T10:43:22;100755.72;;;8.08;94.55
2339;BME280;1180;51.438;6.978;2023-01-31T10:45:52;100764.94;;;8.13;94.39
2339;BME280;1180;51.438;6.978;2023-01-31T10:48:20;100754.91;;;8.08;94.90
2339;BME280;1180;51.438;6.978;2023-01-31T10:56:34;100762.13;;;8.19;93.58
2339;BME280;1180;51.438;6.978;2023-01-31T10:59:09;100766.00;;;8.07;94.54
2339;BME280;1180;51.438;6.978;2023-01-31T11:01:36;100750.59;;;8.08;94.78
2339;BME280;1180;51.438;6.978;2023-01-31T11:04:01;100749.13;;;8.23;93.92
2339;BME280;1180;51.438;6.978;2023-01-31T11:06:29;100742.94;;;8.29;93.01
2339;BME280;1180;51.438;6.978;2023-01-31T11:08:57;100739.75;;;8.24;93.05
2339;BME280;1180;51.438;6.978;2023-01-31T11:11:25;100736.34;;;8.23;93.32
2339;BME280;1180;51.438;6.978;2023-01-31T11:13:58;100738.91;;;8.23;92.99
2339;BME280;1180;51.438;6.978;2023-01-31T11:16:26;100732.00;;;8.26;93.18
2339;BME280;1180;51.438;6.978;2023-01-31T11:18:52;100726.41;;;8.38;92.65
2339;BME280;1180;51.438;6.978;2023-01-31T11:21:23;100710.50;;;8.52;91.91
2339;BME280;1180;51.438;6.978;2023-01-31T11:23:50;100715.13;;;8.42;92.46
2339;BME280;1180;51.438;6.978;2023-01-31T11:26:29;100728.56;;;8.27;92.11
2339;BME280;1180;51.438;6.978;2023-01-31T11:28:55;100723.88;;;8.36;93.23
2339;BME280;1180;51.438;6.978;2023-01-31T11:31:31;100716.56;;;8.49;91.87
2339;BME280;1180;51.438;6.978;2023-01-31T11:34:02;100722.94;;;8.39;92.45
2339;BME280;1180;51.438;6.978;2023-01-31T11:36:32;100714.75;;;8.51;92.64
2339;BME280;1180;51.438;6.978;2023-01-31T11:38:58;100708.84;;;8.70;91.50
2339;BME280;1180;51.438;6.978;2023-01-31T11:41:35;100712.69;;;8.60;91.13
2339;BME280;1180;51.438;6.978;2023-01-31T11:44:17;100710.84;;;8.63;91.78
2339;BME280;1180;51.438;6.978;2023-01-31T11:46:55;100710.66;;;8.47;92.14
2339;BME280;1180;51.438;6.978;2023-01-31T11:49:36;100710.72;;;8.66;91.64
2339;BME280;1180;51.438;6.978;2023-01-31T11:52:13;100700.56;;;8.65;91.41
2339;BME280;1180;51.438;6.978;2023-01-31T11:54:43;100693.13;;;8.78;91.69
2339;BME280;1180;51.438;6.978;2023-01-31T11:57:15;100706.16;;;8.92;91.25
2339;BME280;1180;51.438;6.978;2023-01-31T11:59:41;100693.97;;;8.98;90.43
2339;BME280;1180;51.438;6.978;2023-01-31T12:02:23;100707.50;;;9.01;90.03
2339;BME280;1180;51.438;6.978;2023-01-31T12:04:50;100697.53;;;8.95;90.29
2339;BME280;1180;51.438;6.978;2023-01-31T12:07:23;100691.50;;;8.96;90.17
2339;BME280;1180;51.438;6.978;2023-01-31T12:09:50;100686.25;;;8.99;90.03
2339;BME280;1180;51.438;6.978;2023-01-31T12:12:32;100689.00;;;8.94;90.29
2339;BME280;1180;51.438;6.978;2023-01-31T12:15:00;100690.06;;;8.90;91.27
2339;BME280;1180;51.438;6.978;2023-01-31T12:17:28;100694.19;;;8.93;90.76
2339;BME280;1180;51.438;6.978;2023-01-31T12:23:06;100705.94;;;8.78;91.20
2339;BME280;1180;51.438;6.978;2023-01-31T12:34:16;100661.56;;;8.98;91.01
2339;BME280;1180;51.438;6.978;2023-01-31T12:40:02;100658.00;;;8.81;92.03
2339;BME280;1180;51.438;6.978;2023-01-31T12:42:42;100653.88;;;8.98;91.63
2339;BME280;1180;51.438;6.978;2023-01-31T12:50:36;100638.63;;;9.14;90.42
2339;BME280;1180;51.438;6.978;2023-01-31T12:58:46;100648.06;;;8.94;92.70
2339;BME280;1180;51.438;6.978;2023-01-31T13:01:35;100656.19;;;9.03;91.85
2339;BME280;1180;51.438;6.978;2023-01-31T13:06:54;100647.28;;;9.12;91.08
2339;BME280;1180;51.438;6.978;2023-01-31T13:09:27;100646.56;;;9.08;91.27
2339;BME280;1180;51.438;6.978;2023-01-31T13:12:08;100654.53;;;9.02;91.82
2339;BME280;1180;51.438;6.978;2023-01-31T13:14:43;100648.94;;;9.13;92.28
2339;BME280;1180;51.438;6.978;2023-01-31T13:17:12;100651.53;;;9.11;92.00
2339;BME280;1180;51.438;6.978;2023-01-31T13:22:17;100651.50;;;9.13;93.27
2339;BME280;1180;51.438;6.978;2023-01-31T13:24:47;100649.84;;;9.12;94.34
2339;BME280;1180;51.438;6.978;2023-01-31T13:27:22;100646.22;;;9.16;94.87
2339;BME280;1180;51.438;6.978;2023-01-31T13:30:04;100648.59;;;9.01;96.05
2339;BME280;1180;51.438;6.978;2023-01-31T13:32:36;100655.03;;;8.91;97.76
2339;BME280;1180;51.438;6.978;2023-01-31T13:35:04;100655.53;;;8.99;97.47
2339;BME280;1180;51.438;6.978;2023-01-31T13:37:37;100641.69;;;9.03;98.67
2339;BME280;1180;51.438;6.978;2023-01-31T13:42:38;100652.53;;;9.08;98.48
2339;BME280;1180;51.438;6.978;2023-01-31T13:45:06;100641.84;;;9.18;98.40
2339;BME280;1180;51.438;6.978;2023-01-31T13:47:49;100639.03;;;9.05;99.55
2339;BME280;1180;51.438;6.978;2023-01-31T13:50:38;100635.09;;;8.98;100.00
2339;BME280;1180;51.438;6.978;2023-01-31T13:53:13;100638.44;;;9.00;100.00
2339;BME280;1180;51.438;6.978;2023-01-31T13:55:43;100627.53;;;8.96;100.00
2339;BME280;1180;51.438;6.978;2023-01-31T13:58:17;100637.63;;;8.99;100.00
2339;BME280;1180;51.438;6.978;2023-01-31T14:00:46;100638.09;;;8.88;100.00
2339;BME280;1180;51.438;6.978;2023-01-31T14:03:19;100626.38;;;9.02;100.00
2339;BME280;1180;51.438;6.978;2023-01-31T14:08:55;100637.13;;;8.91;100.00
2339;BME280;1180;51.438;6.978;2023-01-31T14:16:40;100619.75;;;8.98;100.00
2339;BME280;1180;51.438;6.978;2023-01-31T14:21:54;100633.75;;;8.90;100.00
2339;BME280;1180;51.438;6.978;2023-01-31T14:27:19;100630.00;;;8.98;100.00
2339;BME280;1180;51.438;6.978;2023-01-31T14:33:12;100639.75;;;8.89;100.00
2339;BME280;1180;51.438;6.978;2023-01-31T14:44:52;100628.19;;;9.00;100.00
2339;BME280;1180;51.438;6.978;2023-01-31T14:55:55;100643.06;;;9.10;100.00
2339;BME280;1180;51.438;6.978;2023-01-31T14:58:25;100646.69;;;9.24;100.00
2339;BME280;1180;51.438;6.978;2023-01-31T15:00:55;100654.34;;;9.06;100.00
2339;BME280;1180;51.438;6.978;2023-01-31T15:03:28;100647.41;;;9.08;100.00
2339;BME280;1180;51.438;6.978;2023-01-31T15:06:04;100662.84;;;9.07;100.00
2339;BME280;1180;51.438;6.978;2023-01-31T15:11:39;100674.22;;;9.01;100.00
2339;BME280;1180;51.438;6.978;2023-01-31T15:16:59;100675.38;;;9.13;100.00
2339;BME280;1180;51.438;6.978;2023-01-31T15:19:27;100674.88;;;9.05;100.00
2339;BME280;1180;51.438;6.978;2023-01-31T15:21:59;100685.59;;;8.94;100.00
2339;BME280;1180;51.438;6.978;2023-01-31T15:27:01;100680.56;;;9.12;100.00
2339;BME280;1180;51.438;6.978;2023-01-31T15:29:33;100677.66;;;9.19;100.00
2339;BME280;1180;51.438;6.978;2023-01-31T15:32:19;100679.31;;;9.20;100.00
2339;BME280;1180;51.438;6.978;2023-01-31T15:35:00;100684.19;;;9.25;100.00
2339;BME280;1180;51.438;6.978;2023-01-31T15:37:32;100679.91;;;9.25;100.00
2339;BME280;1180;51.438;6.978;2023-01-31T15:40:18;100680.97;;;9.21;100.00
2339;BME280;1180;51.438;6.978;2023-01-31T15:42:44;100682.91;;;9.16;100.00
2339;BME280;1180;51.438;6.978;2023-01-31T15:47:41;100688.56;;;9.04;100.00
2339;BME280;1180;51.438;6.978;2023-01-31T15:50:18;100699.53;;;9.07;100.00
2339;BME280;1180;51.438;6.978;2023-01-31T15:52:43;100695.44;;;9.22;100.00